createdAt,value
2023-01-07T00:00:09.898Z,6.50
2023-01-07T00:02:39.040Z,6.50
2023-01-07T00:05:06.026Z,6.50
2023-01-07T00:07:32.828Z,6.50
2023-01-07T00:09:59.579Z,6.50
2023-01-07T00:12:26.385Z,6.60
2023-01-07T00:14:53.175Z,6.60
2023-01-07T00:17:19.987Z,6.50
2023-01-07T00:22:47.886Z,6.60
2023-01-07T00:25:14.686Z,6.60
2023-01-07T00:27:41.459Z,6.60
2023-01-07T00:30:08.627Z,6.60
2023-01-07T00:32:59.309Z,6.60
2023-01-07T00:35:26.213Z,6.70
2023-01-07T00:37:54.164Z,6.70
2023-01-07T00:40:21.534Z,6.70
2023-01-07T00:42:55.019Z,6.70
2023-01-07T00:45:22.432Z,6.70
2023-01-07T00:47:49.382Z,6.70
2023-01-07T00:50:16.112Z,6.80
2023-01-07T00:52:43.064Z,6.80
2023-01-07T00:55:11.165Z,6.80
2023-01-07T00:57:37.940Z,6.90
2023-01-07T01:00:04.952Z,6.90
2023-01-07T01:02:31.753Z,6.90
2023-01-07T01:04:58.531Z,6.90
2023-01-07T01:07:25.261Z,6.90
2023-01-07T01:09:52.106Z,6.90
2023-01-07T01:12:18.898Z,6.90
2023-01-07T01:14:45.618Z,6.90
2023-01-07T01:17:12.408Z,6.90
2023-01-07T01:19:39.218Z,7.00
2023-01-07T01:22:06.124Z,7.00
2023-01-07T01:24:33.786Z,7.00
2023-01-07T01:27:00.504Z,7.00
2023-01-07T01:29:27.226Z,7.00
2023-01-07T01:31:54.250Z,7.10
2023-01-07T01:34:21.337Z,7.10
2023-01-07T01:36:48.162Z,7.20
2023-01-07T01:39:15.181Z,7.20
2023-01-07T01:41:41.928Z,7.20
2023-01-07T01:44:29.376Z,7.20
2023-01-07T01:46:56.216Z,7.20
2023-01-07T01:49:27.850Z,7.30
2023-01-07T01:51:58.192Z,7.30
2023-01-07T01:54:26.883Z,7.40
2023-01-07T01:56:57.847Z,7.40
2023-01-07T01:59:27.099Z,7.40
2023-01-07T02:01:56.289Z,7.40
2023-01-07T02:04:24.580Z,7.50
2023-01-07T02:06:56.158Z,7.50
2023-01-07T02:09:26.937Z,7.60
2023-01-07T02:12:04.894Z,7.50
2023-01-07T02:14:34.054Z,7.60
2023-01-07T02:17:16.158Z,7.60
2023-01-07T02:20:09.390Z,7.60
2023-01-07T02:22:42.586Z,7.70
2023-01-07T02:25:15.518Z,7.70
2023-01-07T02:27:42.602Z,7.70
2023-01-07T02:30:12.725Z,7.70
2023-01-07T02:32:39.535Z,7.70
2023-01-07T02:35:26.453Z,7.70
2023-01-07T02:37:56.371Z,7.80
2023-01-07T02:40:26.390Z,7.80
2023-01-07T02:43:05.461Z,7.80
2023-01-07T02:45:50.767Z,7.80
2023-01-07T02:48:19.598Z,7.80
2023-01-07T02:50:46.349Z,7.80
2023-01-07T02:53:15.357Z,7.80
2023-01-07T02:55:52.615Z,7.90
2023-01-07T02:58:40.347Z,7.90
2023-01-07T03:01:07.491Z,7.90
2023-01-07T03:03:44.247Z,8.00
2023-01-07T03:06:30.002Z,8.00
2023-01-07T03:09:23.218Z,8.00
2023-01-07T03:11:53.382Z,8.00
2023-01-07T03:14:25.733Z,8.10
2023-01-07T03:16:54.856Z,8.10
2023-01-07T03:19:28.249Z,8.10
2023-01-07T03:21:55.882Z,8.20
2023-01-07T03:24:23.307Z,8.20
2023-01-07T03:26:52.463Z,8.20
2023-01-07T03:29:20.057Z,8.30
2023-01-07T03:31:53.375Z,8.30
2023-01-07T03:34:22.583Z,8.30
2023-01-07T03:37:16.920Z,8.30
2023-01-07T03:39:45.129Z,8.40
2023-01-07T03:42:31.744Z,8.40
2023-01-07T03:44:59.728Z,8.40
2023-01-07T03:47:29.499Z,8.40
2023-01-07T03:49:56.349Z,8.40
2023-01-07T03:52:23.326Z,8.50
2023-01-07T03:54:50.333Z,8.50
2023-01-07T03:57:17.657Z,8.50
2023-01-07T03:59:44.483Z,8.50
2023-01-07T04:02:12.277Z,8.50
2023-01-07T04:04:39.213Z,8.60
2023-01-07T04:07:06.153Z,8.60
2023-01-07T04:09:33.159Z,8.70
2023-01-07T04:12:00.237Z,8.70
2023-01-07T04:14:27.234Z,8.70
2023-01-07T04:16:54.106Z,8.70
2023-01-07T04:19:21.486Z,8.80
2023-01-07T04:21:48.377Z,8.80
2023-01-07T04:24:15.145Z,8.80
2023-01-07T04:26:42.538Z,8.80
2023-01-07T04:29:10.755Z,8.80
2023-01-07T04:31:37.789Z,8.80
2023-01-07T04:34:04.647Z,8.90
2023-01-07T04:36:31.947Z,8.90
2023-01-07T04:38:59.004Z,8.90
2023-01-07T04:41:25.848Z,8.90
2023-01-07T04:43:53.731Z,9.00
2023-01-07T04:46:20.805Z,9.00
2023-01-07T04:48:48.126Z,9.00
2023-01-07T04:51:15.060Z,9.10
2023-01-07T04:53:41.906Z,9.10
2023-01-07T04:56:09.150Z,9.10
2023-01-07T04:58:36.087Z,9.10
2023-01-07T05:01:03.752Z,9.10
2023-01-07T05:03:34.387Z,9.20
2023-01-07T05:06:02.437Z,9.20
2023-01-07T05:08:29.956Z,9.20
2023-01-07T05:10:57.208Z,9.20
2023-01-07T05:13:24.563Z,9.30
2023-01-07T05:15:52.009Z,9.30
2023-01-07T05:18:19.948Z,9.30
2023-01-07T05:20:50.450Z,9.30
2023-01-07T05:23:18.298Z,9.40
2023-01-07T05:25:45.697Z,9.40
2023-01-07T05:28:12.447Z,9.40
2023-01-07T05:30:40.546Z,9.40
2023-01-07T05:33:07.819Z,9.40
2023-01-07T05:35:36.052Z,9.40
2023-01-07T05:38:03.268Z,9.50
2023-01-07T05:40:30.088Z,9.50
2023-01-07T05:42:57.003Z,9.50
2023-01-07T05:45:23.872Z,9.60
2023-01-07T05:47:50.684Z,9.60
2023-01-07T05:50:17.519Z,9.60
2023-01-07T05:52:44.335Z,9.60
2023-01-07T05:55:12.194Z,9.60
2023-01-07T05:57:38.923Z,9.70
2023-01-07T06:00:06.059Z,9.70
2023-01-07T06:02:40.647Z,9.70
2023-01-07T06:05:07.823Z,9.70
2023-01-07T06:07:34.561Z,9.70
2023-01-07T06:10:03.116Z,9.80
2023-01-07T06:12:30.406Z,9.80
2023-01-07T06:14:57.171Z,9.80
2023-01-07T06:17:23.895Z,9.80
2023-01-07T06:19:50.843Z,9.80
2023-01-07T06:22:17.658Z,9.80
2023-01-07T06:24:44.355Z,9.80
2023-01-07T06:27:11.091Z,9.80
2023-01-07T06:29:37.870Z,9.90
2023-01-07T06:32:04.877Z,9.90
2023-01-07T06:34:31.646Z,9.90
2023-01-07T06:36:58.416Z,9.90
2023-01-07T06:39:25.156Z,10.00
2023-01-07T06:41:51.879Z,10.00
2023-01-07T06:44:18.633Z,10.00
2023-01-07T06:46:45.461Z,10.00
2023-01-07T06:49:12.235Z,10.00
2023-01-07T06:51:39.146Z,10.10
2023-01-07T06:54:05.939Z,10.10
2023-01-07T06:56:32.687Z,10.10
2023-01-07T06:58:59.434Z,10.10
2023-01-07T07:01:26.319Z,10.10
2023-01-07T07:03:53.183Z,10.10
2023-01-07T07:06:19.919Z,10.10
2023-01-07T07:08:46.668Z,10.10
2023-01-07T07:11:13.418Z,10.10
2023-01-07T07:13:40.207Z,10.10
2023-01-07T07:16:07.332Z,10.20
2023-01-07T07:18:34.153Z,10.20
2023-01-07T07:21:01.092Z,10.20
2023-01-07T07:23:27.850Z,10.20
2023-01-07T07:25:54.631Z,10.20
2023-01-07T07:28:22.647Z,10.20
2023-01-07T07:30:49.941Z,10.20
2023-01-07T07:33:19.523Z,10.20
2023-01-07T07:35:46.956Z,10.20
2023-01-07T07:38:13.731Z,10.20
2023-01-07T07:40:40.518Z,10.20
2023-01-07T07:43:10.577Z,10.30
2023-01-07T07:45:42.314Z,10.30
2023-01-07T07:48:10.351Z,10.30
2023-01-07T07:50:37.085Z,10.30
2023-01-07T07:53:04.241Z,10.30
2023-01-07T07:55:31.351Z,10.30
2023-01-07T07:58:01.316Z,10.30
2023-01-07T08:00:28.247Z,10.30
2023-01-07T08:02:58.545Z,10.30
2023-01-07T08:05:25.727Z,10.40
2023-01-07T08:07:52.577Z,10.30
2023-01-07T08:10:20.574Z,10.40
2023-01-07T08:12:47.764Z,10.40
2023-01-07T08:15:14.459Z,10.40
2023-01-07T08:17:41.283Z,10.40
2023-01-07T08:20:08.658Z,10.40
2023-01-07T08:22:35.375Z,10.40
2023-01-07T08:25:02.272Z,10.40
2023-01-07T08:27:29.467Z,10.40
2023-01-07T08:29:56.722Z,10.40
2023-01-07T08:32:23.507Z,10.40
2023-01-07T08:34:50.646Z,10.40
2023-01-07T08:37:17.474Z,10.40
2023-01-07T08:39:44.230Z,10.40
2023-01-07T08:42:10.986Z,10.40
2023-01-07T08:44:38.123Z,10.40
2023-01-07T08:47:04.851Z,10.40
2023-01-07T08:49:31.805Z,10.40
2023-01-07T08:51:58.524Z,10.40
2023-01-07T08:54:25.228Z,10.40
2023-01-07T08:56:51.957Z,10.40
2023-01-07T08:59:18.713Z,10.40
2023-01-07T09:01:45.734Z,10.50
2023-01-07T09:04:13.076Z,10.50
2023-01-07T09:06:39.832Z,10.50
2023-01-07T09:09:06.685Z,10.50
2023-01-07T09:11:33.469Z,10.50
2023-01-07T09:14:00.244Z,10.50
2023-01-07T09:16:27.028Z,10.50
2023-01-07T09:18:54.041Z,10.50
2023-01-07T09:21:20.808Z,10.50
2023-01-07T09:23:47.547Z,10.50
2023-01-07T09:26:14.278Z,10.50
2023-01-07T09:28:41.175Z,10.50
2023-01-07T09:31:08.044Z,10.60
2023-01-07T09:33:34.852Z,10.60
2023-01-07T09:36:01.755Z,10.50
2023-01-07T09:38:28.621Z,10.50
2023-01-07T09:40:55.430Z,10.60
2023-01-07T09:43:27.185Z,10.60
2023-01-07T09:46:14.177Z,10.60
2023-01-07T09:48:43.768Z,10.60
2023-01-07T09:51:33.068Z,10.50
2023-01-07T09:54:02.701Z,10.60
2023-01-07T09:56:30.837Z,10.60
2023-01-07T09:58:58.798Z,10.60
2023-01-07T10:01:32.525Z,10.60
2023-01-07T10:04:12.405Z,10.60
2023-01-07T10:06:47.787Z,10.70
2023-01-07T10:09:22.272Z,10.70
2023-01-07T10:11:57.659Z,10.60
2023-01-07T10:14:25.429Z,10.60
2023-01-07T10:16:55.210Z,10.60
2023-01-07T10:19:25.009Z,10.60
2023-01-07T10:22:02.441Z,10.60
2023-01-07T10:24:32.393Z,10.60
2023-01-07T10:27:03.483Z,10.70
2023-01-07T10:29:39.619Z,10.70
2023-01-07T10:32:25.558Z,10.70
2023-01-07T10:34:56.328Z,10.80
2023-01-07T10:37:43.370Z,10.70
2023-01-07T10:40:12.094Z,10.70
2023-01-07T10:42:44.880Z,10.70
2023-01-07T10:45:20.256Z,10.70
2023-01-07T10:48:05.928Z,10.80
2023-01-07T10:50:35.775Z,10.70
2023-01-07T10:53:20.941Z,10.80
2023-01-07T10:56:07.268Z,10.80
2023-01-07T10:58:41.740Z,10.80
2023-01-07T11:01:11.569Z,10.80
2023-01-07T11:03:40.246Z,10.80
2023-01-07T11:09:40.642Z,10.80
2023-01-07T11:12:16.528Z,10.80
2023-01-07T11:14:43.705Z,10.80
2023-01-07T11:17:14.320Z,10.80
2023-01-07T11:19:54.202Z,10.80
2023-01-07T11:22:31.492Z,10.80
2023-01-07T11:24:59.039Z,10.80
2023-01-07T11:27:27.594Z,10.80
2023-01-07T11:30:05.528Z,10.80
2023-01-07T11:32:34.623Z,10.90
2023-01-07T11:35:03.027Z,10.90
2023-01-07T11:37:40.692Z,10.90
2023-01-07T11:40:13.642Z,10.90
2023-01-07T11:42:51.591Z,10.90
2023-01-07T11:45:22.991Z,10.90
2023-01-07T11:47:52.657Z,10.90
2023-01-07T11:50:24.079Z,10.90
2023-01-07T11:53:09.842Z,10.90
2023-01-07T11:55:36.576Z,10.90
2023-01-07T11:58:29.916Z,10.90
2023-01-07T12:01:09.752Z,10.90
2023-01-07T12:03:37.526Z,10.90
2023-01-07T12:06:08.941Z,10.90
2023-01-07T12:08:35.706Z,10.90
2023-01-07T12:11:07.259Z,10.90
2023-01-07T12:13:34.893Z,10.90
2023-01-07T12:16:02.846Z,11.00
2023-01-07T12:18:36.029Z,11.00
2023-01-07T12:21:08.959Z,11.00
2023-01-07T12:23:55.000Z,11.00
2023-01-07T12:26:28.484Z,11.00
2023-01-07T12:29:16.006Z,11.00
2023-01-07T12:31:45.889Z,11.00
2023-01-07T12:34:34.611Z,11.00
2023-01-07T12:37:27.698Z,11.10
2023-01-07T12:40:27.014Z,11.10
2023-01-07T12:42:59.482Z,11.10
2023-01-07T12:45:29.265Z,11.10
2023-01-07T12:48:01.314Z,11.10
2023-01-07T12:50:48.045Z,11.10
2023-01-07T12:53:18.026Z,11.10
2023-01-07T12:55:49.887Z,11.10
2023-01-07T12:58:38.416Z,11.10
2023-01-07T13:01:23.871Z,11.00
2023-01-07T13:04:00.827Z,11.00
2023-01-07T13:06:33.657Z,10.90
2023-01-07T13:09:23.855Z,10.90
2023-01-07T13:12:40.723Z,11.00
2023-01-07T13:15:20.718Z,11.00
2023-01-07T13:18:07.886Z,10.90
2023-01-07T13:20:59.477Z,10.90
2023-01-07T13:23:29.352Z,11.00
2023-01-07T13:25:59.232Z,10.90
2023-01-07T13:28:38.266Z,10.90
2023-01-07T13:31:14.243Z,10.90
2023-01-07T13:33:50.638Z,10.90
2023-01-07T13:36:25.291Z,10.80
2023-01-07T13:38:52.097Z,10.80
2023-01-07T13:41:52.580Z,10.90
2023-01-07T13:44:27.472Z,10.90
2023-01-07T13:46:54.478Z,10.80
2023-01-07T13:49:23.808Z,10.80
2023-01-07T13:51:50.863Z,10.80
2023-01-07T13:54:36.479Z,10.80
2023-01-07T13:57:23.202Z,10.80
2023-01-07T13:59:53.843Z,10.80
2023-01-07T14:02:22.036Z,10.90
2023-01-07T14:04:48.905Z,10.90
2023-01-07T14:07:15.933Z,10.90
2023-01-07T14:09:42.767Z,10.90
2023-01-07T14:12:31.731Z,10.80
2023-01-07T14:15:08.061Z,10.90
2023-01-07T14:17:46.022Z,10.80
2023-01-07T14:20:19.156Z,10.80
2023-01-07T14:23:07.255Z,10.80
2023-01-07T14:25:34.244Z,10.80
2023-01-07T14:28:07.163Z,10.80
2023-01-07T14:30:47.820Z,10.80
2023-01-07T14:33:33.743Z,10.80
2023-01-07T14:36:02.159Z,10.80
2023-01-07T14:38:32.049Z,10.80
2023-01-07T14:41:16.261Z,10.80
2023-01-07T14:43:46.138Z,10.80
2023-01-07T14:46:22.209Z,10.80
2023-01-07T14:48:58.299Z,10.80
2023-01-07T14:51:33.095Z,10.80
2023-01-07T14:54:06.060Z,10.70
2023-01-07T14:56:32.795Z,10.70
2023-01-07T14:59:18.505Z,10.70
2023-01-07T15:02:03.221Z,10.70
2023-01-07T15:04:59.991Z,10.70
2023-01-07T15:07:30.358Z,10.70
2023-01-07T15:17:03.121Z,10.60
2023-01-07T15:19:29.962Z,10.50
2023-01-07T15:22:39.587Z,10.50
2023-01-07T15:25:12.755Z,10.50
2023-01-07T15:42:26.779Z,10.40
2023-01-07T15:45:18.884Z,10.40
2023-01-07T15:51:22.137Z,10.30
2023-01-07T15:56:43.270Z,10.20
2023-01-07T15:59:14.034Z,10.20
2023-01-07T16:01:48.417Z,10.20
2023-01-07T16:04:23.550Z,10.20
2023-01-07T16:06:55.095Z,10.20
2023-01-07T16:09:23.108Z,10.20
2023-01-07T16:11:50.114Z,10.20
2023-01-07T16:14:18.798Z,10.20
2023-01-07T16:16:45.628Z,10.20
2023-01-07T16:19:19.706Z,10.20
2023-01-07T16:21:49.461Z,10.20
2023-01-07T16:24:16.368Z,10.10
2023-01-07T16:27:09.467Z,10.10
2023-01-07T16:29:38.185Z,10.10
2023-01-07T16:32:05.918Z,10.10
2023-01-07T16:34:32.854Z,10.10
2023-01-07T16:37:00.774Z,10.10
2023-01-07T16:39:29.670Z,10.10
2023-01-07T16:42:15.840Z,10.10
2023-01-07T16:44:44.178Z,10.10
2023-01-07T16:47:30.146Z,10.10
2023-01-07T16:49:58.341Z,10.00
2023-01-07T16:52:31.517Z,10.00
2023-01-07T16:54:58.690Z,10.00
2023-01-07T16:57:40.217Z,10.00
2023-01-07T17:00:15.936Z,10.00
2023-01-07T17:02:53.326Z,10.00
2023-01-07T17:05:36.559Z,10.00
2023-01-07T17:08:05.599Z,9.90
2023-01-07T17:10:34.025Z,9.90
2023-01-07T17:13:06.284Z,9.90
2023-01-07T17:15:33.070Z,9.90
2023-01-07T17:18:23.150Z,9.80
2023-01-07T17:20:51.244Z,9.80
2023-01-07T17:23:31.329Z,9.80
2023-01-07T17:25:58.139Z,9.80
2023-01-07T17:28:25.918Z,9.70
2023-01-07T17:30:52.730Z,9.80
2023-01-07T17:33:20.277Z,9.80
2023-01-07T17:35:47.533Z,9.70
2023-01-07T17:38:14.882Z,9.70
2023-01-07T17:40:41.990Z,9.70
2023-01-07T17:43:32.516Z,9.70
2023-01-07T17:46:01.187Z,9.70
2023-01-07T17:48:28.048Z,9.70
2023-01-07T17:50:57.128Z,9.70
2023-01-07T17:53:28.594Z,9.60
2023-01-07T17:55:55.437Z,9.60
2023-01-07T17:58:33.235Z,9.60
2023-01-07T18:01:01.120Z,9.60
2023-01-07T18:03:28.109Z,9.50
2023-01-07T18:05:54.863Z,9.50
2023-01-07T18:08:21.629Z,9.50
2023-01-07T18:11:07.453Z,9.50
2023-01-07T18:13:34.180Z,9.50
2023-01-07T18:16:00.977Z,9.50
2023-01-07T18:18:28.822Z,9.40
2023-01-07T18:20:56.181Z,9.40
2023-01-07T18:23:23.416Z,9.40
2023-01-07T18:25:50.655Z,9.40
2023-01-07T18:28:17.486Z,9.40
2023-01-07T18:30:44.269Z,9.40
2023-01-07T18:33:11.499Z,9.40
2023-01-07T18:35:40.598Z,9.40
2023-01-07T18:38:14.165Z,9.40
2023-01-07T18:40:41.318Z,9.30
2023-01-07T18:43:11.231Z,9.40
2023-01-07T18:45:39.689Z,9.30
2023-01-07T18:48:06.660Z,9.30
2023-01-07T18:50:33.481Z,9.20
2023-01-07T18:53:00.313Z,9.30
2023-01-07T18:55:27.566Z,9.20
2023-01-07T18:57:54.340Z,9.20
2023-01-07T19:00:21.298Z,9.20
2023-01-07T19:02:48.183Z,9.20
2023-01-07T19:05:15.373Z,9.20
2023-01-07T19:07:42.241Z,9.20
2023-01-07T19:10:09.450Z,9.20
2023-01-07T19:12:36.342Z,9.10
2023-01-07T19:15:03.254Z,9.20
2023-01-07T19:17:30.069Z,9.20
2023-01-07T19:19:56.837Z,9.10
2023-01-07T19:22:23.635Z,9.10
2023-01-07T19:24:50.532Z,9.10
2023-01-07T19:27:17.380Z,9.10
2023-01-07T19:29:44.185Z,9.10
2023-01-07T19:32:10.903Z,9.00
2023-01-07T19:34:37.664Z,9.00
2023-01-07T19:37:04.431Z,9.00
2023-01-07T19:39:31.226Z,9.00
2023-01-07T19:41:58.008Z,9.00
2023-01-07T19:44:24.760Z,8.90
2023-01-07T19:46:51.494Z,8.90
2023-01-07T19:49:18.327Z,8.90
2023-01-07T19:51:45.215Z,8.90
2023-01-07T19:54:14.466Z,8.90
2023-01-07T19:56:43.488Z,8.90
2023-01-07T19:59:10.871Z,8.90
2023-01-07T20:01:38.921Z,8.90
2023-01-07T20:04:06.877Z,8.90
2023-01-07T20:06:44.751Z,8.90
2023-01-07T20:09:11.643Z,8.90
2023-01-07T20:11:39.208Z,8.80
2023-01-07T20:14:07.527Z,8.80
2023-01-07T20:16:42.772Z,8.80
2023-01-07T20:19:11.642Z,8.80
2023-01-07T20:21:40.115Z,8.80
2023-01-07T20:24:07.619Z,8.80
2023-01-07T20:26:35.454Z,8.80
2023-01-07T20:29:02.276Z,8.80
2023-01-07T20:31:30.131Z,8.80
2023-01-07T20:33:57.737Z,8.80
2023-01-07T20:36:26.139Z,8.80
2023-01-07T20:38:52.919Z,8.80
2023-01-07T20:41:20.823Z,8.80
2023-01-07T20:44:08.552Z,8.80
2023-01-07T20:46:35.386Z,8.80
2023-01-07T20:49:02.249Z,8.80
2023-01-07T20:51:29.322Z,8.80
2023-01-07T20:53:56.051Z,8.80
2023-01-07T20:56:23.371Z,8.80
2023-01-07T20:58:50.897Z,8.80
2023-01-07T21:01:18.941Z,8.80
2023-01-07T21:03:45.892Z,8.80
2023-01-07T21:06:13.007Z,8.80
2023-01-07T21:08:39.868Z,8.80
2023-01-07T21:11:11.599Z,8.90
2023-01-07T21:13:38.710Z,8.80
2023-01-07T21:16:05.787Z,8.90
2023-01-07T21:18:33.616Z,8.80
2023-01-07T21:21:00.900Z,8.90
2023-01-07T21:23:27.870Z,8.80
2023-01-07T21:25:54.624Z,8.80
2023-01-07T21:28:21.499Z,8.80
2023-01-07T21:30:48.306Z,8.80
2023-01-07T21:33:15.426Z,8.80
2023-01-07T21:35:42.138Z,8.90
2023-01-07T21:38:08.969Z,8.80
2023-01-07T21:40:37.012Z,8.90
2023-01-07T21:43:03.848Z,8.90
2023-01-07T21:45:30.706Z,8.90
2023-01-07T21:47:57.719Z,8.90
2023-01-07T21:50:24.432Z,8.90
2023-01-07T21:52:51.288Z,8.90
2023-01-07T21:55:18.378Z,8.90
2023-01-07T21:57:45.244Z,8.90
2023-01-07T22:00:12.365Z,8.90
2023-01-07T22:02:39.265Z,8.90
2023-01-07T22:05:06.405Z,8.90
2023-01-07T22:07:33.169Z,9.00
2023-01-07T22:09:59.965Z,8.90
2023-01-07T22:12:26.887Z,8.90
2023-01-07T22:14:53.689Z,8.90
2023-01-07T22:17:20.421Z,8.90
2023-01-07T22:19:47.177Z,8.90
2023-01-07T22:22:13.957Z,8.90
2023-01-07T22:24:40.667Z,8.90
2023-01-07T22:27:07.368Z,8.90
2023-01-07T22:29:36.109Z,9.00
2023-01-07T22:32:02.919Z,8.90
2023-01-07T22:34:30.151Z,8.90
2023-01-07T22:37:00.084Z,8.90
2023-01-07T22:39:33.050Z,8.90
2023-01-07T22:42:02.948Z,9.00
2023-01-07T22:44:33.427Z,9.00
2023-01-07T22:47:01.370Z,9.00
2023-01-07T22:49:28.608Z,9.00
2023-01-07T22:51:55.841Z,9.00
2023-01-07T22:54:23.235Z,9.00
2023-01-07T22:56:50.199Z,9.00
2023-01-07T22:59:17.052Z,9.00
2023-01-07T23:01:43.819Z,9.00
2023-01-07T23:04:10.732Z,9.00
2023-01-07T23:06:37.674Z,9.00
2023-01-07T23:09:07.620Z,9.00
2023-01-07T23:11:50.545Z,9.00
2023-01-07T23:14:27.265Z,9.00
2023-01-07T23:16:54.393Z,9.10
2023-01-07T23:19:21.569Z,9.10
2023-01-07T23:21:49.905Z,9.00
2023-01-07T23:24:19.671Z,9.00
2023-01-07T23:26:47.439Z,9.00
2023-01-07T23:29:14.175Z,9.00
2023-01-07T23:31:41.000Z,9.00
2023-01-07T23:34:07.832Z,9.10
2023-01-07T23:36:38.468Z,9.10
2023-01-07T23:39:05.850Z,9.10
2023-01-07T23:41:33.171Z,9.00
2023-01-07T23:44:02.437Z,9.00
2023-01-07T23:46:29.192Z,9.00
2023-01-07T23:48:55.984Z,9.10
2023-01-07T23:51:22.701Z,9.10
2023-01-07T23:53:49.613Z,9.10
2023-01-07T23:56:20.480Z,9.10
2023-01-07T23:58:48.041Z,9.10
